sensor_id;sensor_type;location;lat;lon;timestamp;P1;durP1;ratioP1;P2;durP2;ratioP2
10387;SDS011;5240;51.128;4.566;2023-08-01T00:01:33;5.03;;;4.20;;
10387;SDS011;5240;51.128;4.566;2023-08-01T00:04:00;6.95;;;5.05;;
10387;SDS011;5240;51.128;4.566;2023-08-01T00:06:27;7.55;;;4.90;;
10387;SDS011;5240;51.128;4.566;2023-08-01T00:08:54;7.47;;;5.18;;
10387;SDS011;5240;51.128;4.566;2023-08-01T00:11:21;6.18;;;5.20;;
10387;SDS011;5240;51.128;4.566;2023-08-01T00:13:50;10.73;;;6.15;;
10387;SDS011;5240;51.128;4.566;2023-08-01T00:16:16;9.70;;;5.95;;
10387;SDS011;5240;51.128;4.566;2023-08-01T00:18:43;6.38;;;5.78;;
10387;SDS011;5240;51.128;4.566;2023-08-01T00:21:10;7.30;;;6.35;;
10387;SDS011;5240;51.128;4.566;2023-08-01T00:23:37;11.20;;;6.85;;
10387;SDS011;5240;51.128;4.566;2023-08-01T00:26:04;10.27;;;7.40;;
10387;SDS011;5240;51.128;4.566;2023-08-01T00:28:31;8.65;;;6.63;;
10387;SDS011;5240;51.128;4.566;2023-08-01T00:31:04;10.40;;;7.00;;
10387;SDS011;5240;51.128;4.566;2023-08-01T00:33:32;10.52;;;7.85;;
10387;SDS011;5240;51.128;4.566;2023-08-01T00:35:59;10.57;;;7.50;;
10387;SDS011;5240;51.128;4.566;2023-08-01T00:38:26;11.05;;;7.72;;
10387;SDS011;5240;51.128;4.566;2023-08-01T00:40:53;13.48;;;8.10;;
10387;SDS011;5240;51.128;4.566;2023-08-01T00:43:20;12.25;;;8.45;;
10387;SDS011;5240;51.128;4.566;2023-08-01T00:45:47;10.77;;;8.38;;
10387;SDS011;5240;51.128;4.566;2023-08-01T00:48:16;13.45;;;9.30;;
10387;SDS011;5240;51.128;4.566;2023-08-01T00:50:44;16.50;;;9.43;;
10387;SDS011;5240;51.128;4.566;2023-08-01T00:53:11;13.18;;;9.88;;
10387;SDS011;5240;51.128;4.566;2023-08-01T00:55:39;12.35;;;9.57;;
10387;SDS011;5240;51.128;4.566;2023-08-01T00:58:06;15.27;;;10.38;;
10387;SDS011;5240;51.128;4.566;2023-08-01T01:00:33;14.52;;;9.95;;
10387;SDS011;5240;51.128;4.566;2023-08-01T01:03:01;13.60;;;10.18;;
10387;SDS011;5240;51.128;4.566;2023-08-01T01:05:31;13.07;;;9.68;;
10387;SDS011;5240;51.128;4.566;2023-08-01T01:08:03;12.43;;;10.50;;
10387;SDS011;5240;51.128;4.566;2023-08-01T01:10:30;12.30;;;10.00;;
10387;SDS011;5240;51.128;4.566;2023-08-01T01:12:57;11.70;;;10.25;;
10387;SDS011;5240;51.128;4.566;2023-08-01T01:15:24;12.82;;;10.27;;
10387;SDS011;5240;51.128;4.566;2023-08-01T01:17:51;11.25;;;9.48;;
10387;SDS011;5240;51.128;4.566;2023-08-01T01:20:21;12.68;;;9.43;;
10387;SDS011;5240;51.128;4.566;2023-08-01T01:22:50;12.38;;;10.30;;
10387;SDS011;5240;51.128;4.566;2023-08-01T01:25:20;11.35;;;10.15;;
10387;SDS011;5240;51.128;4.566;2023-08-01T01:27:48;13.60;;;10.25;;
10387;SDS011;5240;51.128;4.566;2023-08-01T01:30:17;14.68;;;10.77;;
10387;SDS011;5240;51.128;4.566;2023-08-01T01:32:45;15.75;;;10.23;;
10387;SDS011;5240;51.128;4.566;2023-08-01T01:35:12;13.88;;;9.55;;
10387;SDS011;5240;51.128;4.566;2023-08-01T01:37:40;16.75;;;10.27;;
10387;SDS011;5240;51.128;4.566;2023-08-01T01:40:08;14.18;;;9.68;;
10387;SDS011;5240;51.128;4.566;2023-08-01T01:42:36;14.98;;;9.95;;
10387;SDS011;5240;51.128;4.566;2023-08-01T01:45:03;15.52;;;10.40;;
10387;SDS011;5240;51.128;4.566;2023-08-01T01:47:31;15.00;;;10.25;;
10387;SDS011;5240;51.128;4.566;2023-08-01T01:49:58;13.80;;;10.90;;
10387;SDS011;5240;51.128;4.566;2023-08-01T01:52:25;15.30;;;11.18;;
10387;SDS011;5240;51.128;4.566;2023-08-01T01:54:52;20.05;;;11.02;;
10387;SDS011;5240;51.128;4.566;2023-08-01T01:57:20;13.30;;;10.32;;
10387;SDS011;5240;51.128;4.566;2023-08-01T01:59:47;18.38;;;10.88;;
10387;SDS011;5240;51.128;4.566;2023-08-01T02:02:14;19.48;;;10.88;;
10387;SDS011;5240;51.128;4.566;2023-08-01T02:04:41;19.42;;;10.52;;
10387;SDS011;5240;51.128;4.566;2023-08-01T02:07:08;14.98;;;10.18;;
10387;SDS011;5240;51.128;4.566;2023-08-01T02:09:35;14.75;;;11.18;;
10387;SDS011;5240;51.128;4.566;2023-08-01T02:12:02;14.93;;;10.25;;
10387;SDS011;5240;51.128;4.566;2023-08-01T02:14:31;18.60;;;11.00;;
10387;SDS011;5240;51.128;4.566;2023-08-01T02:16:58;17.10;;;11.23;;
10387;SDS011;5240;51.128;4.566;2023-08-01T02:19:25;15.77;;;10.55;;
10387;SDS011;5240;51.128;4.566;2023-08-01T02:21:52;17.13;;;11.43;;
10387;SDS011;5240;51.128;4.566;2023-08-01T02:24:19;16.70;;;11.02;;
10387;SDS011;5240;51.128;4.566;2023-08-01T02:26:47;17.05;;;11.32;;
10387;SDS011;5240;51.128;4.566;2023-08-01T02:29:15;17.17;;;11.13;;
10387;SDS011;5240;51.128;4.566;2023-08-01T02:31:43;16.60;;;11.70;;
10387;SDS011;5240;51.128;4.566;2023-08-01T02:34:10;16.88;;;12.05;;
10387;SDS011;5240;51.128;4.566;2023-08-01T02:36:37;13.15;;;11.35;;
10387;SDS011;5240;51.128;4.566;2023-08-01T02:39:05;16.65;;;10.80;;
10387;SDS011;5240;51.128;4.566;2023-08-01T02:41:32;19.13;;;11.55;;
10387;SDS011;5240;51.128;4.566;2023-08-01T02:43:59;20.40;;;11.32;;
10387;SDS011;5240;51.128;4.566;2023-08-01T02:46:26;17.63;;;11.90;;
10387;SDS011;5240;51.128;4.566;2023-08-01T02:48:56;19.02;;;11.63;;
10387;SDS011;5240;51.128;4.566;2023-08-01T02:51:23;20.08;;;11.75;;
10387;SDS011;5240;51.128;4.566;2023-08-01T02:53:50;15.07;;;11.32;;
10387;SDS011;5240;51.128;4.566;2023-08-01T02:56:17;18.83;;;12.32;;
10387;SDS011;5240;51.128;4.566;2023-08-01T02:58:44;18.48;;;12.73;;
10387;SDS011;5240;51.128;4.566;2023-08-01T03:01:11;20.75;;;12.93;;
10387;SDS011;5240;51.128;4.566;2023-08-01T03:03:38;16.63;;;12.70;;
10387;SDS011;5240;51.128;4.566;2023-08-01T03:06:07;18.40;;;12.40;;
10387;SDS011;5240;51.128;4.566;2023-08-01T03:08:34;19.60;;;12.25;;
10387;SDS011;5240;51.128;4.566;2023-08-01T03:11:01;21.00;;;13.10;;
10387;SDS011;5240;51.128;4.566;2023-08-01T03:13:28;21.92;;;13.18;;
10387;SDS011;5240;51.128;4.566;2023-08-01T03:15:55;18.52;;;12.88;;
10387;SDS011;5240;51.128;4.566;2023-08-01T03:18:22;23.05;;;14.43;;
10387;SDS011;5240;51.128;4.566;2023-08-01T03:20:49;21.00;;;13.63;;
10387;SDS011;5240;51.128;4.566;2023-08-01T03:23:18;19.83;;;14.40;;
10387;SDS011;5240;51.128;4.566;2023-08-01T03:25:45;20.48;;;14.50;;
10387;SDS011;5240;51.128;4.566;2023-08-01T03:28:12;20.90;;;14.20;;
10387;SDS011;5240;51.128;4.566;2023-08-01T03:30:39;21.33;;;14.82;;
10387;SDS011;5240;51.128;4.566;2023-08-01T03:33:06;24.70;;;15.77;;
10387;SDS011;5240;51.128;4.566;2023-08-01T03:35:33;18.60;;;13.90;;
10387;SDS011;5240;51.128;4.566;2023-08-01T03:38:00;20.25;;;15.15;;
10387;SDS011;5240;51.128;4.566;2023-08-01T03:40:28;20.42;;;14.88;;
10387;SDS011;5240;51.128;4.566;2023-08-01T03:42:55;18.85;;;15.20;;
10387;SDS011;5240;51.128;4.566;2023-08-01T03:45:22;24.02;;;15.75;;
10387;SDS011;5240;51.128;4.566;2023-08-01T03:47:49;23.67;;;15.27;;
10387;SDS011;5240;51.128;4.566;2023-08-01T03:50:16;25.05;;;15.05;;
10387;SDS011;5240;51.128;4.566;2023-08-01T03:52:43;21.20;;;15.38;;
10387;SDS011;5240;51.128;4.566;2023-08-01T03:55:10;19.48;;;14.85;;
10387;SDS011;5240;51.128;4.566;2023-08-01T03:57:39;19.33;;;14.52;;
10387;SDS011;5240;51.128;4.566;2023-08-01T04:00:06;20.00;;;15.00;;
10387;SDS011;5240;51.128;4.566;2023-08-01T04:02:38;25.13;;;15.43;;
10387;SDS011;5240;51.128;4.566;2023-08-01T04:05:06;20.33;;;15.52;;
10387;SDS011;5240;51.128;4.566;2023-08-01T04:07:34;22.05;;;15.30;;
10387;SDS011;5240;51.128;4.566;2023-08-01T04:10:01;26.30;;;15.63;;
10387;SDS011;5240;51.128;4.566;2023-08-01T04:12:28;23.13;;;16.13;;
10387;SDS011;5240;51.128;4.566;2023-08-01T04:14:57;18.92;;;15.20;;
10387;SDS011;5240;51.128;4.566;2023-08-01T04:17:24;22.48;;;15.63;;
10387;SDS011;5240;51.128;4.566;2023-08-01T04:19:51;19.15;;;15.90;;
10387;SDS011;5240;51.128;4.566;2023-08-01T04:22:18;21.70;;;15.85;;
10387;SDS011;5240;51.128;4.566;2023-08-01T04:24:45;22.65;;;16.58;;
10387;SDS011;5240;51.128;4.566;2023-08-01T04:27:12;22.75;;;15.85;;
10387;SDS011;5240;51.128;4.566;2023-08-01T04:29:39;25.75;;;15.50;;
10387;SDS011;5240;51.128;4.566;2023-08-01T04:32:08;21.63;;;15.45;;
10387;SDS011;5240;51.128;4.566;2023-08-01T04:34:38;24.88;;;15.25;;
10387;SDS011;5240;51.128;4.566;2023-08-01T04:37:05;25.33;;;15.63;;
10387;SDS011;5240;51.128;4.566;2023-08-01T04:39:32;22.85;;;14.45;;
10387;SDS011;5240;51.128;4.566;2023-08-01T04:41:59;22.45;;;14.20;;
10387;SDS011;5240;51.128;4.566;2023-08-01T04:44:26;24.20;;;14.68;;
10387;SDS011;5240;51.128;4.566;2023-08-01T04:46:54;18.83;;;13.90;;
10387;SDS011;5240;51.128;4.566;2023-08-01T04:49:22;17.60;;;12.73;;
10387;SDS011;5240;51.128;4.566;2023-08-01T04:51:50;20.20;;;13.25;;
10387;SDS011;5240;51.128;4.566;2023-08-01T04:54:17;22.10;;;13.20;;
10387;SDS011;5240;51.128;4.566;2023-08-01T04:56:44;19.23;;;13.00;;
10387;SDS011;5240;51.128;4.566;2023-08-01T04:59:11;18.08;;;12.68;;
10387;SDS011;5240;51.128;4.566;2023-08-01T05:01:39;17.60;;;11.73;;
10387;SDS011;5240;51.128;4.566;2023-08-01T05:04:06;16.23;;;12.00;;
10387;SDS011;5240;51.128;4.566;2023-08-01T05:06:34;17.27;;;12.35;;
10387;SDS011;5240;51.128;4.566;2023-08-01T05:09:01;23.55;;;11.90;;
10387;SDS011;5240;51.128;4.566;2023-08-01T05:11:29;15.75;;;11.65;;
10387;SDS011;5240;51.128;4.566;2023-08-01T05:13:56;19.52;;;11.77;;
10387;SDS011;5240;51.128;4.566;2023-08-01T05:16:23;16.55;;;10.95;;
10387;SDS011;5240;51.128;4.566;2023-08-01T05:18:50;17.17;;;11.02;;
10387;SDS011;5240;51.128;4.566;2023-08-01T05:21:17;14.00;;;10.18;;
10387;SDS011;5240;51.128;4.566;2023-08-01T05:23:45;19.17;;;10.35;;
10387;SDS011;5240;51.128;4.566;2023-08-01T05:26:12;18.20;;;10.30;;
10387;SDS011;5240;51.128;4.566;2023-08-01T05:28:39;15.50;;;9.80;;
10387;SDS011;5240;51.128;4.566;2023-08-01T05:31:06;20.13;;;10.43;;
10387;SDS011;5240;51.128;4.566;2023-08-01T05:33:33;18.10;;;9.55;;
10387;SDS011;5240;51.128;4.566;2023-08-01T05:36:00;14.80;;;9.55;;
10387;SDS011;5240;51.128;4.566;2023-08-01T05:38:27;22.67;;;9.05;;
10387;SDS011;5240;51.128;4.566;2023-08-01T05:40:55;13.02;;;8.85;;
10387;SDS011;5240;51.128;4.566;2023-08-01T05:43:22;17.13;;;9.40;;
10387;SDS011;5240;51.128;4.566;2023-08-01T05:45:49;16.35;;;9.55;;
10387;SDS011;5240;51.128;4.566;2023-08-01T05:48:16;15.35;;;8.88;;
10387;SDS011;5240;51.128;4.566;2023-08-01T05:50:43;17.17;;;9.23;;
10387;SDS011;5240;51.128;4.566;2023-08-01T05:53:10;16.02;;;9.63;;
10387;SDS011;5240;51.128;4.566;2023-08-01T05:55:37;15.50;;;8.50;;
10387;SDS011;5240;51.128;4.566;2023-08-01T05:58:05;16.52;;;9.75;;
10387;SDS011;5240;51.128;4.566;2023-08-01T06:00:32;14.57;;;9.57;;
10387;SDS011;5240;51.128;4.566;2023-08-01T06:02:59;16.10;;;9.02;;
10387;SDS011;5240;51.128;4.566;2023-08-01T06:05:26;17.23;;;9.18;;
10387;SDS011;5240;51.128;4.566;2023-08-01T06:07:54;16.33;;;9.25;;
10387;SDS011;5240;51.128;4.566;2023-08-01T06:10:21;13.40;;;9.18;;
10387;SDS011;5240;51.128;4.566;2023-08-01T06:12:48;14.05;;;8.45;;
10387;SDS011;5240;51.128;4.566;2023-08-01T06:15:17;13.50;;;8.63;;
10387;SDS011;5240;51.128;4.566;2023-08-01T06:17:44;80.95;;;53.33;;
10387;SDS011;5240;51.128;4.566;2023-08-01T06:20:11;16.77;;;9.93;;
10387;SDS011;5240;51.128;4.566;2023-08-01T06:22:38;14.85;;;8.68;;
10387;SDS011;5240;51.128;4.566;2023-08-01T06:25:05;14.50;;;8.52;;
10387;SDS011;5240;51.128;4.566;2023-08-01T06:27:33;17.63;;;9.27;;
10387;SDS011;5240;51.128;4.566;2023-08-01T06:30:00;16.05;;;8.55;;
10387;SDS011;5240;51.128;4.566;2023-08-01T06:32:28;15.65;;;8.27;;
10387;SDS011;5240;51.128;4.566;2023-08-01T06:34:55;14.65;;;8.02;;
10387;SDS011;5240;51.128;4.566;2023-08-01T06:37:22;16.17;;;7.72;;
10387;SDS011;5240;51.128;4.566;2023-08-01T06:39:49;14.88;;;8.57;;
10387;SDS011;5240;51.128;4.566;2023-08-01T06:42:16;15.57;;;8.80;;
10387;SDS011;5240;51.128;4.566;2023-08-01T06:44:43;11.60;;;7.75;;
10387;SDS011;5240;51.128;4.566;2023-08-01T06:47:10;12.90;;;8.10;;
10387;SDS011;5240;51.128;4.566;2023-08-01T06:49:38;13.98;;;8.50;;
10387;SDS011;5240;51.128;4.566;2023-08-01T06:52:05;16.80;;;8.88;;
10387;SDS011;5240;51.128;4.566;2023-08-01T06:54:33;15.25;;;8.38;;
10387;SDS011;5240;51.128;4.566;2023-08-01T06:57:00;13.90;;;8.30;;
10387;SDS011;5240;51.128;4.566;2023-08-01T06:59:27;14.75;;;8.43;;
10387;SDS011;5240;51.128;4.566;2023-08-01T07:01:55;16.00;;;8.90;;
10387;SDS011;5240;51.128;4.566;2023-08-01T07:04:22;17.10;;;8.68;;
10387;SDS011;5240;51.128;4.566;2023-08-01T07:06:50;13.82;;;8.23;;
10387;SDS011;5240;51.128;4.566;2023-08-01T07:09:17;11.98;;;8.32;;
10387;SDS011;5240;51.128;4.566;2023-08-01T07:11:44;16.45;;;8.73;;
10387;SDS011;5240;51.128;4.566;2023-08-01T07:14:11;14.00;;;8.75;;
10387;SDS011;5240;51.128;4.566;2023-08-01T07:16:38;15.75;;;8.10;;
10387;SDS011;5240;51.128;4.566;2023-08-01T07:19:05;16.98;;;8.57;;
10387;SDS011;5240;51.128;4.566;2023-08-01T07:21:32;12.77;;;8.25;;
10387;SDS011;5240;51.128;4.566;2023-08-01T07:24:00;13.27;;;7.82;;
10387;SDS011;5240;51.128;4.566;2023-08-01T07:26:27;13.18;;;8.43;;
10387;SDS011;5240;51.128;4.566;2023-08-01T07:28:55;10.07;;;7.43;;
10387;SDS011;5240;51.128;4.566;2023-08-01T07:31:22;13.05;;;7.90;;
10387;SDS011;5240;51.128;4.566;2023-08-01T07:33:48;10.40;;;6.68;;
10387;SDS011;5240;51.128;4.566;2023-08-01T07:36:16;13.98;;;7.47;;
10387;SDS011;5240;51.128;4.566;2023-08-01T07:38:43;14.77;;;6.82;;
10387;SDS011;5240;51.128;4.566;2023-08-01T07:41:11;10.73;;;6.10;;
10387;SDS011;5240;51.128;4.566;2023-08-01T07:43:38;11.43;;;7.00;;
10387;SDS011;5240;51.128;4.566;2023-08-01T07:46:06;12.40;;;6.03;;
10387;SDS011;5240;51.128;4.566;2023-08-01T07:48:33;11.05;;;5.90;;
10387;SDS011;5240;51.128;4.566;2023-08-01T07:51:01;13.38;;;6.38;;
10387;SDS011;5240;51.128;4.566;2023-08-01T07:53:30;11.38;;;6.47;;
10387;SDS011;5240;51.128;4.566;2023-08-01T07:55:57;12.30;;;6.30;;
10387;SDS011;5240;51.128;4.566;2023-08-01T07:58:26;11.27;;;5.78;;
10387;SDS011;5240;51.128;4.566;2023-08-01T08:00:53;11.40;;;5.57;;
10387;SDS011;5240;51.128;4.566;2023-08-01T08:03:20;9.45;;;5.68;;
10387;SDS011;5240;51.128;4.566;2023-08-01T08:05:48;11.00;;;5.97;;
10387;SDS011;5240;51.128;4.566;2023-08-01T08:08:15;13.00;;;5.45;;
10387;SDS011;5240;51.128;4.566;2023-08-01T08:10:42;12.00;;;5.13;;
10387;SDS011;5240;51.128;4.566;2023-08-01T08:13:09;10.27;;;5.00;;
10387;SDS011;5240;51.128;4.566;2023-08-01T08:15:38;9.90;;;4.80;;
10387;SDS011;5240;51.128;4.566;2023-08-01T08:18:05;8.68;;;4.85;;
10387;SDS011;5240;51.128;4.566;2023-08-01T08:20:34;9.32;;;5.05;;
10387;SDS011;5240;51.128;4.566;2023-08-01T08:23:07;11.05;;;5.25;;
10387;SDS011;5240;51.128;4.566;2023-08-01T08:25:34;11.98;;;5.10;;
10387;SDS011;5240;51.128;4.566;2023-08-01T08:28:01;9.77;;;4.95;;
10387;SDS011;5240;51.128;4.566;2023-08-01T08:30:29;13.25;;;5.30;;
10387;SDS011;5240;51.128;4.566;2023-08-01T08:32:58;10.25;;;5.20;;
10387;SDS011;5240;51.128;4.566;2023-08-01T08:35:29;9.77;;;4.60;;
10387;SDS011;5240;51.128;4.566;2023-08-01T08:37:57;10.35;;;5.18;;
10387;SDS011;5240;51.128;4.566;2023-08-01T08:40:25;9.35;;;4.32;;
10387;SDS011;5240;51.128;4.566;2023-08-01T08:42:52;10.23;;;4.80;;
10387;SDS011;5240;51.128;4.566;2023-08-01T08:45:19;8.50;;;4.22;;
10387;SDS011;5240;51.128;4.566;2023-08-01T08:47:52;8.48;;;4.32;;
10387;SDS011;5240;51.128;4.566;2023-08-01T08:50:23;10.63;;;5.30;;
10387;SDS011;5240;51.128;4.566;2023-08-01T08:52:51;8.32;;;4.40;;
10387;SDS011;5240;51.128;4.566;2023-08-01T08:55:19;11.18;;;4.75;;
10387;SDS011;5240;51.128;4.566;2023-08-01T08:57:47;10.73;;;4.25;;
10387;SDS011;5240;51.128;4.566;2023-08-01T09:00:17;10.85;;;4.85;;
10387;SDS011;5240;51.128;4.566;2023-08-01T09:02:45;9.45;;;4.35;;
10387;SDS011;5240;51.128;4.566;2023-08-01T09:05:12;9.65;;;4.60;;
10387;SDS011;5240;51.128;4.566;2023-08-01T09:07:41;7.32;;;4.00;;
10387;SDS011;5240;51.128;4.566;2023-08-01T09:10:12;10.43;;;4.40;;
10387;SDS011;5240;51.128;4.566;2023-08-01T09:12:39;10.60;;;4.20;;
10387;SDS011;5240;51.128;4.566;2023-08-01T09:15:07;7.07;;;3.65;;
10387;SDS011;5240;51.128;4.566;2023-08-01T09:17:36;5.03;;;3.35;;
10387;SDS011;5240;51.128;4.566;2023-08-01T09:20:14;8.05;;;3.90;;
10387;SDS011;5240;51.128;4.566;2023-08-01T09:22:43;9.18;;;3.90;;
10387;SDS011;5240;51.128;4.566;2023-08-01T09:25:11;7.95;;;3.60;;
10387;SDS011;5240;51.128;4.566;2023-08-01T09:27:38;10.60;;;3.65;;
10387;SDS011;5240;51.128;4.566;2023-08-01T09:30:06;8.38;;;3.65;;
10387;SDS011;5240;51.128;4.566;2023-08-01T09:32:34;5.43;;;3.33;;
10387;SDS011;5240;51.128;4.566;2023-08-01T09:35:01;5.78;;;3.15;;
10387;SDS011;5240;51.128;4.566;2023-08-01T09:37:37;7.57;;;3.47;;
10387;SDS011;5240;51.128;4.566;2023-08-01T09:40:07;6.45;;;3.05;;
10387;SDS011;5240;51.128;4.566;2023-08-01T09:42:38;5.78;;;3.03;;
10387;SDS011;5240;51.128;4.566;2023-08-01T09:45:06;5.57;;;3.00;;
10387;SDS011;5240;51.128;4.566;2023-08-01T09:47:38;8.25;;;3.08;;
10387;SDS011;5240;51.128;4.566;2023-08-01T09:50:06;5.57;;;2.80;;
10387;SDS011;5240;51.128;4.566;2023-08-01T09:52:33;5.78;;;2.92;;
10387;SDS011;5240;51.128;4.566;2023-08-01T09:55:00;5.03;;;3.17;;
10387;SDS011;5240;51.128;4.566;2023-08-01T09:57:30;5.60;;;3.20;;
10387;SDS011;5240;51.128;4.566;2023-08-01T09:59:57;7.78;;;3.53;;
10387;SDS011;5240;51.128;4.566;2023-08-01T10:02:26;6.30;;;2.90;;
10387;SDS011;5240;51.128;4.566;2023-08-01T10:04:57;6.05;;;3.30;;
10387;SDS011;5240;51.128;4.566;2023-08-01T10:07:28;8.70;;;3.28;;
10387;SDS011;5240;51.128;4.566;2023-08-01T10:09:58;6.18;;;3.10;;
10387;SDS011;5240;51.128;4.566;2023-08-01T10:12:26;6.93;;;3.35;;
10387;SDS011;5240;51.128;4.566;2023-08-01T10:14:54;5.88;;;3.17;;
10387;SDS011;5240;51.128;4.566;2023-08-01T10:17:22;6.38;;;3.58;;
10387;SDS011;5240;51.128;4.566;2023-08-01T10:19:51;7.10;;;3.67;;
10387;SDS011;5240;51.128;4.566;2023-08-01T10:22:22;8.77;;;3.63;;
10387;SDS011;5240;51.128;4.566;2023-08-01T10:24:50;6.35;;;3.42;;
10387;SDS011;5240;51.128;4.566;2023-08-01T10:27:20;6.03;;;3.50;;
10387;SDS011;5240;51.128;4.566;2023-08-01T10:29:57;7.35;;;3.38;;
10387;SDS011;5240;51.128;4.566;2023-08-01T10:32:29;6.60;;;3.63;;
10387;SDS011;5240;51.128;4.566;2023-08-01T10:34:59;7.72;;;3.40;;
10387;SDS011;5240;51.128;4.566;2023-08-01T10:37:27;6.07;;;2.75;;
10387;SDS011;5240;51.128;4.566;2023-08-01T10:40:06;6.43;;;3.15;;
10387;SDS011;5240;51.128;4.566;2023-08-01T10:42:37;7.93;;;3.05;;
10387;SDS011;5240;51.128;4.566;2023-08-01T10:45:07;9.25;;;3.60;;
10387;SDS011;5240;51.128;4.566;2023-08-01T10:47:45;5.75;;;2.63;;
10387;SDS011;5240;51.128;4.566;2023-08-01T10:50:13;4.85;;;2.75;;
10387;SDS011;5240;51.128;4.566;2023-08-01T10:52:41;10.38;;;2.90;;
10387;SDS011;5240;51.128;4.566;2023-08-01T10:55:09;7.78;;;3.03;;
10387;SDS011;5240;51.128;4.566;2023-08-01T10:57:36;8.23;;;4.00;;
10387;SDS011;5240;51.128;4.566;2023-08-01T11:00:06;7.68;;;2.60;;
10387;SDS011;5240;51.128;4.566;2023-08-01T11:02:35;6.53;;;2.75;;
10387;SDS011;5240;51.128;4.566;2023-08-01T11:05:03;8.85;;;2.90;;
10387;SDS011;5240;51.128;4.566;2023-08-01T11:07:31;8.45;;;2.90;;
10387;SDS011;5240;51.128;4.566;2023-08-01T11:10:06;5.35;;;2.70;;
10387;SDS011;5240;51.128;4.566;2023-08-01T11:12:35;5.38;;;2.88;;
10387;SDS011;5240;51.128;4.566;2023-08-01T11:15:03;5.78;;;2.70;;
10387;SDS011;5240;51.128;4.566;2023-08-01T11:17:34;5.15;;;2.90;;
10387;SDS011;5240;51.128;4.566;2023-08-01T11:20:03;5.72;;;2.65;;
10387;SDS011;5240;51.128;4.566;2023-08-01T11:22:32;4.90;;;2.65;;
10387;SDS011;5240;51.128;4.566;2023-08-01T11:24:59;5.18;;;2.35;;
10387;SDS011;5240;51.128;4.566;2023-08-01T11:27:26;3.92;;;2.17;;
10387;SDS011;5240;51.128;4.566;2023-08-01T11:29:53;6.35;;;2.47;;
10387;SDS011;5240;51.128;4.566;2023-08-01T11:32:21;7.55;;;2.83;;
10387;SDS011;5240;51.128;4.566;2023-08-01T11:34:59;4.82;;;2.50;;
10387;SDS011;5240;51.128;4.566;2023-08-01T11:37:27;5.90;;;2.55;;
10387;SDS011;5240;51.128;4.566;2023-08-01T11:39:55;4.15;;;2.47;;
10387;SDS011;5240;51.128;4.566;2023-08-01T11:42:24;5.32;;;2.35;;
10387;SDS011;5240;51.128;4.566;2023-08-01T11:44:51;5.53;;;2.58;;
10387;SDS011;5240;51.128;4.566;2023-08-01T11:47:18;5.88;;;2.55;;
10387;SDS011;5240;51.128;4.566;2023-08-01T11:49:46;5.60;;;2.45;;
10387;SDS011;5240;51.128;4.566;2023-08-01T11:52:24;5.38;;;2.60;;
10387;SDS011;5240;51.128;4.566;2023-08-01T11:54:51;5.65;;;2.55;;
10387;SDS011;5240;51.128;4.566;2023-08-01T11:57:19;6.32;;;2.65;;
10387;SDS011;5240;51.128;4.566;2023-08-01T11:59:47;4.15;;;2.15;;
10387;SDS011;5240;51.128;4.566;2023-08-01T12:02:21;4.47;;;2.22;;
10387;SDS011;5240;51.128;4.566;2023-08-01T12:04:49;7.03;;;2.55;;
10387;SDS011;5240;51.128;4.566;2023-08-01T12:07:16;2.67;;;2.08;;
10387;SDS011;5240;51.128;4.566;2023-08-01T12:09:46;2.75;;;2.00;;
10387;SDS011;5240;51.128;4.566;2023-08-01T12:12:21;5.18;;;2.33;;
10387;SDS011;5240;51.128;4.566;2023-08-01T12:14:48;4.30;;;2.30;;
10387;SDS011;5240;51.128;4.566;2023-08-01T12:17:15;3.25;;;1.90;;
10387;SDS011;5240;51.128;4.566;2023-08-01T12:19:42;5.32;;;2.08;;
10387;SDS011;5240;51.128;4.566;2023-08-01T12:22:09;5.55;;;2.28;;
10387;SDS011;5240;51.128;4.566;2023-08-01T12:24:37;6.00;;;2.03;;
10387;SDS011;5240;51.128;4.566;2023-08-01T12:27:06;4.90;;;2.10;;
10387;SDS011;5240;51.128;4.566;2023-08-01T12:29:34;6.88;;;2.40;;
10387;SDS011;5240;51.128;4.566;2023-08-01T12:32:01;2.92;;;1.90;;
10387;SDS011;5240;51.128;4.566;2023-08-01T12:34:28;3.70;;;2.03;;
10387;SDS011;5240;51.128;4.566;2023-08-01T12:36:55;5.68;;;2.10;;
10387;SDS011;5240;51.128;4.566;2023-08-01T12:39:22;4.57;;;2.15;;
10387;SDS011;5240;51.128;4.566;2023-08-01T12:41:51;3.92;;;1.95;;
10387;SDS011;5240;51.128;4.566;2023-08-01T12:44:20;3.20;;;1.92;;
10387;SDS011;5240;51.128;4.566;2023-08-01T12:46:47;4.82;;;1.80;;
10387;SDS011;5240;51.128;4.566;2023-08-01T12:49:14;4.65;;;2.20;;
10387;SDS011;5240;51.128;4.566;2023-08-01T12:51:41;5.15;;;2.25;;
10387;SDS011;5240;51.128;4.566;2023-08-01T12:54:10;5.80;;;2.25;;
10387;SDS011;5240;51.128;4.566;2023-08-01T12:56:37;7.95;;;2.20;;
10387;SDS011;5240;51.128;4.566;2023-08-01T12:59:04;3.67;;;1.98;;
10387;SDS011;5240;51.128;4.566;2023-08-01T13:01:32;6.75;;;2.38;;
10387;SDS011;5240;51.128;4.566;2023-08-01T13:03:59;3.60;;;1.75;;
10387;SDS011;5240;51.128;4.566;2023-08-01T13:06:26;3.20;;;2.00;;
10387;SDS011;5240;51.128;4.566;2023-08-01T13:08:53;3.30;;;2.00;;
10387;SDS011;5240;51.128;4.566;2023-08-01T13:11:20;4.82;;;2.05;;
10387;SDS011;5240;51.128;4.566;2023-08-01T13:13:47;7.95;;;2.38;;
10387;SDS011;5240;51.128;4.566;2023-08-01T13:16:14;3.63;;;1.80;;
10387;SDS011;5240;51.128;4.566;2023-08-01T13:18:42;3.60;;;2.05;;
10387;SDS011;5240;51.128;4.566;2023-08-01T13:21:11;3.22;;;1.98;;
10387;SDS011;5240;51.128;4.566;2023-08-01T13:23:39;5.70;;;2.33;;
10387;SDS011;5240;51.128;4.566;2023-08-01T13:26:06;4.95;;;2.20;;
10387;SDS011;5240;51.128;4.566;2023-08-01T13:28:32;4.35;;;1.92;;
10387;SDS011;5240;51.128;4.566;2023-08-01T13:30:59;4.85;;;2.30;;
10387;SDS011;5240;51.128;4.566;2023-08-01T13:33:26;4.05;;;2.22;;
10387;SDS011;5240;51.128;4.566;2023-08-01T13:35:55;4.43;;;2.20;;
10387;SDS011;5240;51.128;4.566;2023-08-01T13:38:23;4.72;;;2.08;;
10387;SDS011;5240;51.128;4.566;2023-08-01T13:40:50;3.83;;;2.15;;
10387;SDS011;5240;51.128;4.566;2023-08-01T13:43:16;4.53;;;2.20;;
10387;SDS011;5240;51.128;4.566;2023-08-01T13:45:44;4.82;;;2.15;;
10387;SDS011;5240;51.128;4.566;2023-08-01T13:48:11;11.48;;;2.60;;
10387;SDS011;5240;51.128;4.566;2023-08-01T13:50:38;5.22;;;2.42;;
10387;SDS011;5240;51.128;4.566;2023-08-01T13:53:06;5.72;;;2.30;;
10387;SDS011;5240;51.128;4.566;2023-08-01T13:55:35;3.53;;;2.08;;
10387;SDS011;5240;51.128;4.566;2023-08-01T13:58:02;4.60;;;2.58;;
10387;SDS011;5240;51.128;4.566;2023-08-01T14:00:29;5.13;;;2.10;;
10387;SDS011;5240;51.128;4.566;2023-08-01T14:02:57;4.03;;;2.50;;
10387;SDS011;5240;51.128;4.566;2023-08-01T14:05:24;4.53;;;2.13;;
10387;SDS011;5240;51.128;4.566;2023-08-01T14:07:51;3.75;;;2.25;;
10387;SDS011;5240;51.128;4.566;2023-08-01T14:10:21;5.55;;;2.42;;
10387;SDS011;5240;51.128;4.566;2023-08-01T14:12:48;4.88;;;2.25;;
10387;SDS011;5240;51.128;4.566;2023-08-01T14:15:15;5.00;;;2.70;;
10387;SDS011;5240;51.128;4.566;2023-08-01T14:17:43;5.00;;;2.80;;
10387;SDS011;5240;51.128;4.566;2023-08-01T14:20:10;5.43;;;2.40;;
10387;SDS011;5240;51.128;4.566;2023-08-01T14:22:38;3.50;;;2.20;;
10387;SDS011;5240;51.128;4.566;2023-08-01T14:25:05;5.40;;;2.53;;
10387;SDS011;5240;51.128;4.566;2023-08-01T14:27:35;4.22;;;2.22;;
10387;SDS011;5240;51.128;4.566;2023-08-01T14:30:02;4.78;;;2.33;;
10387;SDS011;5240;51.128;4.566;2023-08-01T14:32:31;5.72;;;2.80;;
10387;SDS011;5240;51.128;4.566;2023-08-01T14:34:57;4.78;;;2.50;;
10387;SDS011;5240;51.128;4.566;2023-08-01T14:37:25;3.47;;;2.15;;
10387;SDS011;5240;51.128;4.566;2023-08-01T14:39:52;4.35;;;2.60;;
10387;SDS011;5240;51.128;4.566;2023-08-01T14:42:19;5.50;;;2.35;;
10387;SDS011;5240;51.128;4.566;2023-08-01T14:44:52;6.57;;;2.60;;
10387;SDS011;5240;51.128;4.566;2023-08-01T14:47:19;8.48;;;2.90;;
10387;SDS011;5240;51.128;4.566;2023-08-01T14:49:46;6.78;;;2.58;;
10387;SDS011;5240;51.128;4.566;2023-08-01T14:52:13;5.97;;;2.20;;
10387;SDS011;5240;51.128;4.566;2023-08-01T14:54:40;5.80;;;2.40;;